Amber Lagoon — V7FS4 — position and weather

sailwx.info

Track history (hours):
 
Tides and Currents Weather Stations Pressure Air Temp Water Temp Dewpoint Dewpoint Depression Visibility Wind Speed Wind Dir Waves Ship Positions

Amber Lagoon

Last reported at 2016-Sep-29 00:34 UTC. Time now 2016-Sep-29 08:26 UTC.
Position N 43°43' W 003°16'.

Length 192 m; draft 8.3 m.

Type: Cargo ship. MMSI: 538090116.

Date/timePositionNaut miles runAvg speedWind from/ knotsBaromVisibWave heightAir tempDewpointWater temp
2016-Sep-29 00:34N 43°43' W 003°16'4615.2
2016-Sep-28 21:33N 44°26' W 003°39'14515.9
2016-Sep-28 12:27N 46°41' W 004°51'6416.3
2016-Sep-28 08:33N 47°41' W 005°23'7715.4
2016-Sep-28 03:33N 48°57' W 005°39'1414.1
2016-Sep-28 02:33N 49°05' W 005°21'1211.6
2016-Sep-28 01:33N 49°11' W 005°06'2713.5
2016-Sep-27 23:33N 49°24' W 004°30'5914.9
2016-Sep-27 19:33N 49°54' W 003°10'6812.6
2016-Sep-27 14:09N 50°16' W 001°29'1015.2
2016-Sep-27 13:32N 50°18' W 001°15'4615.4
2016-Sep-27 10:33N 50°30' W 000°06'13513.5
2016-Sep-27 00:34N 51°24' E 003°11'39 9.7
2016-Sep-26 20:33N 51°23' E 004°13'3 3.3
2016-Sep-26 19:30N 51°21' E 004°17'5 1.3
2016-Sep-26 15:32N 51°17' E 004°23'0 0.0
2016-Sep-26 13:32N 51°17' E 004°23'0 0.0
2016-Sep-26 11:32N 51°17' E 004°23'0 0.0
2016-Sep-26 08:32N 51°17' E 004°23'0 0.0
2016-Sep-26 02:32N 51°17' E 004°23'0 0.0
2016-Sep-26 01:32N 51°17' E 004°23'0 0.0
2016-Sep-26 00:32N 51°17' E 004°23'0 0.0
2016-Sep-25 21:32N 51°17' E 004°23'0 0.0
2016-Sep-25 17:29N 51°17' E 004°23'0 0.0
2016-Sep-25 16:32N 51°17' E 004°23'0 0.0
2016-Sep-25 15:32N 51°17' E 004°23'0 0.0
2016-Sep-25 14:29N 51°17' E 004°23'0 0.0
2016-Sep-25 12:32N 51°17' E 004°23'0 0.0
2016-Sep-25 11:32N 51°17' E 004°23'0 0.0
2016-Sep-25 10:32N 51°17' E 004°23'0 0.0
2016-Sep-25 09:32N 51°17' E 004°23'0 0.0
2016-Sep-25 07:31N 51°17' E 004°23'0 0.0
2016-Sep-25 04:31N 51°17' E 004°23'0 0.0
2016-Sep-25 00:31N 51°17' E 004°23'0 0.0
2016-Sep-24 22:31N 51°17' E 004°23'0 0.0
2016-Sep-24 21:31N 51°17' E 004°23'0 0.0
2016-Sep-24 19:31N 51°17' E 004°23'0 0.0
2016-Sep-24 18:31N 51°17' E 004°23'0 0.0
2016-Sep-24 17:31N 51°17' E 004°23'0 0.0
2016-Sep-24 16:31N 51°17' E 004°23'0 0.0
2016-Sep-24 14:31N 51°17' E 004°23'0 0.0
2016-Sep-24 12:31N 51°17' E 004°23'0 0.0
2016-Sep-24 10:31N 51°17' E 004°23'0 0.0
2016-Sep-24 09:31N 51°17' E 004°23'0 0.0
2016-Sep-24 03:31N 51°17' E 004°23'0 0.0
2016-Sep-24 02:31N 51°17' E 004°23'0 0.0
2016-Sep-24 01:31N 51°17' E 004°23'0 0.0
2016-Sep-24 00:33N 51°17' E 004°23'0 0.0
2016-Sep-23 19:33N 51°17' E 004°23'5 2.7
2016-Sep-23 17:33N 51°21' E 004°17'0 0.1
2016-Sep-23 16:33N 51°21' E 004°17'8 7.6
2016-Sep-23 15:33N 51°22' E 004°05'19 9.7
2016-Sep-23 13:33N 51°25' E 003°34'27 6.7
2016-Sep-23 09:33N 51°52' E 003°25'1 0.1
2016-Sep-23 04:32N 51°52' E 003°26'0 0.0
2016-Sep-23 00:29N 51°52' E 003°25'0 0.1
2016-Sep-22 23:17N 51°52' E 003°26'0 0.0
2016-Sep-22 04:32N 51°52' E 003°26'0 0.0
2016-Sep-22 03:25N 51°52' E 003°26'0 0.1
2016-Sep-22 00:31N 51°52' E 003°25'0 0.0
2016-Sep-21 23:31N 51°52' E 003°25'0 0.0
2016-Sep-21 22:31N 51°52' E 003°25'0 0.0
2016-Sep-21 16:25N 51°52' E 003°26'0 0.0
2016-Sep-21 09:16N 51°52' E 003°25'0 0.1
2016-Sep-21 08:28N 51°52' E 003°25'0 0.0
2016-Sep-21 05:31N 51°52' E 003°26'0 0.0
2016-Sep-21 03:31N 51°52' E 003°26'0 0.1
2016-Sep-21 02:21N 51°52' E 003°25'12 1.0
2016-Sep-20 14:05N 52°04' E 003°21'6811.6
2016-Sep-20 08:12N 53°04' E 004°11'710.6
2016-Sep-20 07:33N 53°09' E 004°20'10 9.5
2016-Sep-20 06:31N 53°17' E 004°28'4411.2
2016-Sep-20 02:33N 53°59' E 004°55'28 9.3
2016-Sep-19 23:33N 54°08' E 005°40'35 8.7
2016-Sep-19 19:31N 54°11' E 006°40'1111.0
2016-Sep-19 18:31N 54°12' E 006°59'16 8.1
2016-Sep-19 16:32N 54°08' E 007°25'0 0.0
2016-Sep-19 14:28N 54°08' E 007°25'0 0.2
2016-Sep-19 13:31N 54°07' E 007°25'0 0.1
2016-Sep-19 12:31N 54°08' E 007°25'0 0.0
2016-Sep-19 11:31N 54°08' E 007°25'0 0.0
2016-Sep-19 09:28N 54°08' E 007°25'0 0.1
2016-Sep-19 07:31N 54°08' E 007°25'0 0.0
2016-Sep-19 06:31N 54°08' E 007°25'0 0.0
2016-Sep-19 03:31N 54°08' E 007°25'0 0.0
2016-Sep-19 02:31N 54°08' E 007°25'  
Track history (hours):
 
Tides and Currents Weather Stations Pressure Air Temp Water Temp Dewpoint Dewpoint Depression Visibility Wind Speed Wind Dir Waves Ship Positions

Amber Lagoon

Last reported at 2016-Sep-29 00:34 UTC. Time now 2016-Sep-29 08:26 UTC.
Position N 43°43' W 003°16'.

Length 192 m; draft 8.3 m.

Type: Cargo ship. MMSI: 538090116.

Date/timePositionNaut miles runAvg speedWind from/ knotsBaromVisibWave heightAir tempDewpointWater temp
2016-Sep-29 00:34N 43°43' W 003°16'4615.2
2016-Sep-28 21:33N 44°26' W 003°39'14515.9
2016-Sep-28 12:27N 46°41' W 004°51'6416.3
2016-Sep-28 08:33N 47°41' W 005°23'7715.4
2016-Sep-28 03:33N 48°57' W 005°39'1414.1
2016-Sep-28 02:33N 49°05' W 005°21'1211.6
2016-Sep-28 01:33N 49°11' W 005°06'2713.5
2016-Sep-27 23:33N 49°24' W 004°30'5914.9
2016-Sep-27 19:33N 49°54' W 003°10'6812.6
2016-Sep-27 14:09N 50°16' W 001°29'1015.2
2016-Sep-27 13:32N 50°18' W 001°15'4615.4
2016-Sep-27 10:33N 50°30' W 000°06'13513.5
2016-Sep-27 00:34N 51°24' E 003°11'39 9.7
2016-Sep-26 20:33N 51°23' E 004°13'3 3.3
2016-Sep-26 19:30N 51°21' E 004°17'5 1.3
2016-Sep-26 15:32N 51°17' E 004°23'0 0.0
2016-Sep-26 13:32N 51°17' E 004°23'0 0.0
2016-Sep-26 11:32N 51°17' E 004°23'0 0.0
2016-Sep-26 08:32N 51°17' E 004°23'0 0.0
2016-Sep-26 02:32N 51°17' E 004°23'0 0.0
2016-Sep-26 01:32N 51°17' E 004°23'0 0.0
2016-Sep-26 00:32N 51°17' E 004°23'0 0.0
2016-Sep-25 21:32N 51°17' E 004°23'0 0.0
2016-Sep-25 17:29N 51°17' E 004°23'0 0.0
2016-Sep-25 16:32N 51°17' E 004°23'0 0.0
2016-Sep-25 15:32N 51°17' E 004°23'0 0.0
2016-Sep-25 14:29N 51°17' E 004°23'0 0.0
2016-Sep-25 12:32N 51°17' E 004°23'0 0.0
2016-Sep-25 11:32N 51°17' E 004°23'0 0.0
2016-Sep-25 10:32N 51°17' E 004°23'0 0.0
2016-Sep-25 09:32N 51°17' E 004°23'0 0.0
2016-Sep-25 07:31N 51°17' E 004°23'0 0.0
2016-Sep-25 04:31N 51°17' E 004°23'0 0.0
2016-Sep-25 00:31N 51°17' E 004°23'0 0.0
2016-Sep-24 22:31N 51°17' E 004°23'0 0.0
2016-Sep-24 21:31N 51°17' E 004°23'0 0.0
2016-Sep-24 19:31N 51°17' E 004°23'0 0.0
2016-Sep-24 18:31N 51°17' E 004°23'0 0.0
2016-Sep-24 17:31N 51°17' E 004°23'0 0.0
2016-Sep-24 16:31N 51°17' E 004°23'0 0.0
2016-Sep-24 14:31N 51°17' E 004°23'0 0.0
2016-Sep-24 12:31N 51°17' E 004°23'0 0.0
2016-Sep-24 10:31N 51°17' E 004°23'0 0.0
2016-Sep-24 09:31N 51°17' E 004°23'0 0.0
2016-Sep-24 03:31N 51°17' E 004°23'0 0.0
2016-Sep-24 02:31N 51°17' E 004°23'0 0.0
2016-Sep-24 01:31N 51°17' E 004°23'0 0.0
2016-Sep-24 00:33N 51°17' E 004°23'0 0.0
2016-Sep-23 19:33N 51°17' E 004°23'5 2.7
2016-Sep-23 17:33N 51°21' E 004°17'0 0.1
2016-Sep-23 16:33N 51°21' E 004°17'8 7.6
2016-Sep-23 15:33N 51°22' E 004°05'19 9.7
2016-Sep-23 13:33N 51°25' E 003°34'27 6.7
2016-Sep-23 09:33N 51°52' E 003°25'1 0.1
2016-Sep-23 04:32N 51°52' E 003°26'0 0.0
2016-Sep-23 00:29N 51°52' E 003°25'0 0.1
2016-Sep-22 23:17N 51°52' E 003°26'0 0.0
2016-Sep-22 04:32N 51°52' E 003°26'0 0.0
2016-Sep-22 03:25N 51°52' E 003°26'0 0.1
2016-Sep-22 00:31N 51°52' E 003°25'0 0.0
2016-Sep-21 23:31N 51°52' E 003°25'0 0.0
2016-Sep-21 22:31N 51°52' E 003°25'0 0.0
2016-Sep-21 16:25N 51°52' E 003°26'0 0.0
2016-Sep-21 09:16N 51°52' E 003°25'0 0.1
2016-Sep-21 08:28N 51°52' E 003°25'0 0.0
2016-Sep-21 05:31N 51°52' E 003°26'0 0.0
2016-Sep-21 03:31N 51°52' E 003°26'0 0.1
2016-Sep-21 02:21N 51°52' E 003°25'12 1.0
2016-Sep-20 14:05N 52°04' E 003°21'6811.6
2016-Sep-20 08:12N 53°04' E 004°11'710.6
2016-Sep-20 07:33N 53°09' E 004°20'10 9.5
2016-Sep-20 06:31N 53°17' E 004°28'4411.2
2016-Sep-20 02:33N 53°59' E 004°55'28 9.3
2016-Sep-19 23:33N 54°08' E 005°40'35 8.7
2016-Sep-19 19:31N 54°11' E 006°40'1111.0
2016-Sep-19 18:31N 54°12' E 006°59'16 8.1
2016-Sep-19 16:32N 54°08' E 007°25'0 0.0
2016-Sep-19 14:28N 54°08' E 007°25'0 0.2
2016-Sep-19 13:31N 54°07' E 007°25'0 0.1
2016-Sep-19 12:31N 54°08' E 007°25'0 0.0
2016-Sep-19 11:31N 54°08' E 007°25'0 0.0
2016-Sep-19 09:28N 54°08' E 007°25'0 0.1
2016-Sep-19 07:31N 54°08' E 007°25'0 0.0
2016-Sep-19 06:31N 54°08' E 007°25'0 0.0
2016-Sep-19 03:31N 54°08' E 007°25'0 0.0
2016-Sep-19 02:31N 54°08' E 007°25'  

Dump ship's entire track history